sensor_id;sensor_type;location;lat;lon;timestamp;P1;durP1;ratioP1;P2;durP2;ratioP2
76290;SDS011;65100;46.884;17.410;2023-08-06T00:01:12;4.77;;;1.90;;
76290;SDS011;65100;46.884;17.410;2023-08-06T00:03:37;5.47;;;2.20;;
76290;SDS011;65100;46.884;17.410;2023-08-06T00:06:04;5.57;;;1.90;;
76290;SDS011;65100;46.884;17.410;2023-08-06T00:08:30;4.10;;;1.83;;
76290;SDS011;65100;46.884;17.410;2023-08-06T00:10:56;4.73;;;1.87;;
76290;SDS011;65100;46.884;17.410;2023-08-06T00:13:21;4.47;;;2.10;;
76290;SDS011;65100;46.884;17.410;2023-08-06T00:15:47;4.60;;;1.90;;
76290;SDS011;65100;46.884;17.410;2023-08-06T00:18:12;5.28;;;1.80;;
76290;SDS011;65100;46.884;17.410;2023-08-06T00:20:41;5.13;;;1.80;;
76290;SDS011;65100;46.884;17.410;2023-08-06T00:23:06;3.70;;;1.70;;
76290;SDS011;65100;46.884;17.410;2023-08-06T00:25:33;4.32;;;1.90;;
76290;SDS011;65100;46.884;17.410;2023-08-06T00:27:59;4.17;;;1.90;;
76290;SDS011;65100;46.884;17.410;2023-08-06T00:30:24;4.10;;;1.87;;
76290;SDS011;65100;46.884;17.410;2023-08-06T00:32:50;4.70;;;1.83;;
76290;SDS011;65100;46.884;17.410;2023-08-06T00:35:15;4.93;;;1.90;;
76290;SDS011;65100;46.884;17.410;2023-08-06T00:37:41;4.43;;;2.00;;
76290;SDS011;65100;46.884;17.410;2023-08-06T00:40:06;4.97;;;1.85;;
76290;SDS011;65100;46.884;17.410;2023-08-06T00:42:33;4.13;;;1.90;;
76290;SDS011;65100;46.884;17.410;2023-08-06T00:44:59;4.75;;;1.98;;
76290;SDS011;65100;46.884;17.410;2023-08-06T00:47:25;5.32;;;1.90;;
76290;SDS011;65100;46.884;17.410;2023-08-06T00:49:51;6.55;;;2.00;;
76290;SDS011;65100;46.884;17.410;2023-08-06T00:52:17;6.27;;;1.93;;
76290;SDS011;65100;46.884;17.410;2023-08-06T00:54:42;4.80;;;2.10;;
76290;SDS011;65100;46.884;17.410;2023-08-06T00:57:08;4.03;;;1.92;;
76290;SDS011;65100;46.884;17.410;2023-08-06T00:59:34;4.18;;;1.83;;
76290;SDS011;65100;46.884;17.410;2023-08-06T01:02:00;4.30;;;1.80;;
76290;SDS011;65100;46.884;17.410;2023-08-06T01:04:25;4.73;;;1.90;;
76290;SDS011;65100;46.884;17.410;2023-08-06T01:06:53;4.15;;;1.73;;
76290;SDS011;65100;46.884;17.410;2023-08-06T01:09:26;5.97;;;1.90;;
76290;SDS011;65100;46.884;17.410;2023-08-06T01:13:05;4.77;;;1.80;;
76290;SDS011;65100;46.884;17.410;2023-08-06T01:15:29;5.13;;;1.73;;
76290;SDS011;65100;46.884;17.410;2023-08-06T01:17:59;4.32;;;1.85;;
76290;SDS011;65100;46.884;17.410;2023-08-06T01:20:28;3.83;;;1.80;;
76290;SDS011;65100;46.884;17.410;2023-08-06T01:22:55;4.30;;;1.70;;
76290;SDS011;65100;46.884;17.410;2023-08-06T01:25:20;5.20;;;1.90;;
76290;SDS011;65100;46.884;17.410;2023-08-06T01:27:47;4.63;;;1.70;;
76290;SDS011;65100;46.884;17.410;2023-08-06T01:30:22;5.30;;;1.73;;
76290;SDS011;65100;46.884;17.410;2023-08-06T01:32:53;4.40;;;1.40;;
76290;SDS011;65100;46.884;17.410;2023-08-06T01:35:23;4.03;;;1.60;;
76290;SDS011;65100;46.884;17.410;2023-08-06T01:37:51;3.03;;;1.30;;
76290;SDS011;65100;46.884;17.410;2023-08-06T01:40:17;4.73;;;1.50;;
76290;SDS011;65100;46.884;17.410;2023-08-06T01:45:49;3.58;;;1.30;;
76290;SDS011;65100;46.884;17.410;2023-08-06T01:48:15;4.63;;;1.50;;
76290;SDS011;65100;46.884;17.410;2023-08-06T01:50:40;3.90;;;1.40;;
76290;SDS011;65100;46.884;17.410;2023-08-06T01:53:06;2.70;;;1.20;;
76290;SDS011;65100;46.884;17.410;2023-08-06T01:55:31;3.13;;;1.50;;
76290;SDS011;65100;46.884;17.410;2023-08-06T01:57:57;4.60;;;1.40;;
76290;SDS011;65100;46.884;17.410;2023-08-06T02:00:22;3.63;;;1.30;;
76290;SDS011;65100;46.884;17.410;2023-08-06T02:02:47;3.53;;;1.30;;
76290;SDS011;65100;46.884;17.410;2023-08-06T02:05:13;4.47;;;1.40;;
76290;SDS011;65100;46.884;17.410;2023-08-06T02:07:38;4.07;;;1.40;;
76290;SDS011;65100;46.884;17.410;2023-08-06T02:10:04;3.05;;;1.40;;
76290;SDS011;65100;46.884;17.410;2023-08-06T02:12:30;3.60;;;1.40;;
76290;SDS011;65100;46.884;17.410;2023-08-06T02:14:55;3.33;;;1.40;;
76290;SDS011;65100;46.884;17.410;2023-08-06T02:17:21;2.80;;;1.30;;
76290;SDS011;65100;46.884;17.410;2023-08-06T02:19:46;4.27;;;1.60;;
76290;SDS011;65100;46.884;17.410;2023-08-06T02:22:11;4.43;;;1.50;;
76290;SDS011;65100;46.884;17.410;2023-08-06T02:24:37;3.80;;;1.35;;
76290;SDS011;65100;46.884;17.410;2023-08-06T02:27:02;3.87;;;1.60;;
76290;SDS011;65100;46.884;17.410;2023-08-06T02:29:28;4.37;;;1.40;;
76290;SDS011;65100;46.884;17.410;2023-08-06T02:31:53;3.00;;;1.30;;
76290;SDS011;65100;46.884;17.410;2023-08-06T02:34:19;3.13;;;1.30;;
76290;SDS011;65100;46.884;17.410;2023-08-06T02:36:44;2.50;;;1.17;;
76290;SDS011;65100;46.884;17.410;2023-08-06T02:39:10;2.93;;;1.40;;
76290;SDS011;65100;46.884;17.410;2023-08-06T02:41:35;2.90;;;1.17;;
76290;SDS011;65100;46.884;17.410;2023-08-06T02:44:00;3.20;;;1.30;;
76290;SDS011;65100;46.884;17.410;2023-08-06T02:46:26;4.00;;;1.40;;
76290;SDS011;65100;46.884;17.410;2023-08-06T02:48:51;2.53;;;1.23;;
76290;SDS011;65100;46.884;17.410;2023-08-06T02:51:17;2.70;;;1.10;;
76290;SDS011;65100;46.884;17.410;2023-08-06T02:53:42;3.92;;;1.20;;
76290;SDS011;65100;46.884;17.410;2023-08-06T02:56:08;2.30;;;1.10;;
76290;SDS011;65100;46.884;17.410;2023-08-06T02:58:33;2.13;;;1.10;;
76290;SDS011;65100;46.884;17.410;2023-08-06T03:01:02;2.30;;;1.20;;
76290;SDS011;65100;46.884;17.410;2023-08-06T03:03:30;3.35;;;1.20;;
76290;SDS011;65100;46.884;17.410;2023-08-06T03:05:56;2.88;;;1.02;;
76290;SDS011;65100;46.884;17.410;2023-08-06T03:08:22;2.53;;;1.20;;
76290;SDS011;65100;46.884;17.410;2023-08-06T03:10:51;3.07;;;1.10;;
76290;SDS011;65100;46.884;17.410;2023-08-06T03:13:17;2.42;;;1.15;;
76290;SDS011;65100;46.884;17.410;2023-08-06T03:15:43;3.60;;;1.10;;
76290;SDS011;65100;46.884;17.410;2023-08-06T03:18:09;2.80;;;1.33;;
76290;SDS011;65100;46.884;17.410;2023-08-06T03:20:34;4.07;;;1.00;;
76290;SDS011;65100;46.884;17.410;2023-08-06T03:23:00;3.70;;;1.10;;
76290;SDS011;65100;46.884;17.410;2023-08-06T03:25:25;2.40;;;1.10;;
76290;SDS011;65100;46.884;17.410;2023-08-06T03:27:51;2.78;;;1.05;;
76290;SDS011;65100;46.884;17.410;2023-08-06T03:30:16;2.37;;;1.20;;
76290;SDS011;65100;46.884;17.410;2023-08-06T03:32:42;3.35;;;1.00;;
76290;SDS011;65100;46.884;17.410;2023-08-06T03:35:07;3.13;;;1.17;;
76290;SDS011;65100;46.884;17.410;2023-08-06T03:37:33;1.80;;;0.90;;
76290;SDS011;65100;46.884;17.410;2023-08-06T03:39:58;3.50;;;1.10;;
76290;SDS011;65100;46.884;17.410;2023-08-06T03:42:24;2.40;;;1.00;;
76290;SDS011;65100;46.884;17.410;2023-08-06T03:44:49;1.57;;;0.97;;
76290;SDS011;65100;46.884;17.410;2023-08-06T03:47:15;2.13;;;1.00;;
76290;SDS011;65100;46.884;17.410;2023-08-06T03:49:40;2.28;;;1.00;;
76290;SDS011;65100;46.884;17.410;2023-08-06T03:52:05;3.47;;;0.90;;
76290;SDS011;65100;46.884;17.410;2023-08-06T03:54:31;2.17;;;1.00;;
76290;SDS011;65100;46.884;17.410;2023-08-06T03:56:57;1.60;;;0.90;;
76290;SDS011;65100;46.884;17.410;2023-08-06T03:59:22;3.20;;;1.10;;
76290;SDS011;65100;46.884;17.410;2023-08-06T04:01:48;2.27;;;1.27;;
76290;SDS011;65100;46.884;17.410;2023-08-06T04:04:13;2.67;;;1.10;;
76290;SDS011;65100;46.884;17.410;2023-08-06T04:06:38;2.57;;;1.00;;
76290;SDS011;65100;46.884;17.410;2023-08-06T04:09:04;2.20;;;1.00;;
76290;SDS011;65100;46.884;17.410;2023-08-06T04:11:29;2.97;;;1.00;;
76290;SDS011;65100;46.884;17.410;2023-08-06T04:13:55;1.80;;;1.00;;
76290;SDS011;65100;46.884;17.410;2023-08-06T04:16:21;1.97;;;1.00;;
76290;SDS011;65100;46.884;17.410;2023-08-06T04:18:46;2.67;;;0.90;;
76290;SDS011;65100;46.884;17.410;2023-08-06T04:21:12;1.90;;;0.93;;
76290;SDS011;65100;46.884;17.410;2023-08-06T04:23:37;3.60;;;1.00;;
76290;SDS011;65100;46.884;17.410;2023-08-06T04:26:03;3.45;;;0.90;;
76290;SDS011;65100;46.884;17.410;2023-08-06T04:28:28;1.90;;;1.00;;
76290;SDS011;65100;46.884;17.410;2023-08-06T04:30:55;3.90;;;1.00;;
76290;SDS011;65100;46.884;17.410;2023-08-06T04:33:20;2.50;;;1.00;;
76290;SDS011;65100;46.884;17.410;2023-08-06T04:35:45;3.42;;;0.90;;
76290;SDS011;65100;46.884;17.410;2023-08-06T04:38:11;2.30;;;1.00;;
76290;SDS011;65100;46.884;17.410;2023-08-06T04:40:36;1.73;;;1.00;;
76290;SDS011;65100;46.884;17.410;2023-08-06T04:43:02;3.33;;;1.17;;
76290;SDS011;65100;46.884;17.410;2023-08-06T04:45:28;2.72;;;0.90;;
76290;SDS011;65100;46.884;17.410;2023-08-06T04:47:53;2.20;;;1.20;;
76290;SDS011;65100;46.884;17.410;2023-08-06T04:50:19;3.00;;;1.10;;
76290;SDS011;65100;46.884;17.410;2023-08-06T04:52:45;2.50;;;1.03;;
76290;SDS011;65100;46.884;17.410;2023-08-06T04:55:10;3.42;;;1.00;;
76290;SDS011;65100;46.884;17.410;2023-08-06T04:57:36;1.80;;;1.00;;
76290;SDS011;65100;46.884;17.410;2023-08-06T05:00:01;3.17;;;1.07;;
76290;SDS011;65100;46.884;17.410;2023-08-06T05:02:27;3.00;;;1.00;;
76290;SDS011;65100;46.884;17.410;2023-08-06T05:04:53;2.53;;;1.00;;
76290;SDS011;65100;46.884;17.410;2023-08-06T05:07:18;2.92;;;1.00;;
76290;SDS011;65100;46.884;17.410;2023-08-06T05:09:44;2.53;;;1.10;;
76290;SDS011;65100;46.884;17.410;2023-08-06T05:12:09;2.30;;;1.10;;
76290;SDS011;65100;46.884;17.410;2023-08-06T05:14:34;2.57;;;1.00;;
76290;SDS011;65100;46.884;17.410;2023-08-06T05:17:00;2.88;;;1.10;;
76290;SDS011;65100;46.884;17.410;2023-08-06T05:19:27;3.57;;;1.10;;
76290;SDS011;65100;46.884;17.410;2023-08-06T05:21:52;2.38;;;1.05;;
76290;SDS011;65100;46.884;17.410;2023-08-06T05:24:18;3.30;;;1.00;;
76290;SDS011;65100;46.884;17.410;2023-08-06T05:26:43;2.47;;;1.00;;
76290;SDS011;65100;46.884;17.410;2023-08-06T05:29:11;2.70;;;1.20;;
76290;SDS011;65100;46.884;17.410;2023-08-06T05:31:37;2.33;;;1.20;;
76290;SDS011;65100;46.884;17.410;2023-08-06T05:34:02;3.10;;;1.20;;
76290;SDS011;65100;46.884;17.410;2023-08-06T05:36:28;2.23;;;1.10;;
76290;SDS011;65100;46.884;17.410;2023-08-06T05:38:53;3.03;;;1.13;;
76290;SDS011;65100;46.884;17.410;2023-08-06T05:41:19;2.37;;;1.10;;
76290;SDS011;65100;46.884;17.410;2023-08-06T05:43:44;2.40;;;1.10;;
76290;SDS011;65100;46.884;17.410;2023-08-06T05:46:10;2.95;;;1.10;;
76290;SDS011;65100;46.884;17.410;2023-08-06T05:48:35;2.30;;;1.10;;
76290;SDS011;65100;46.884;17.410;2023-08-06T05:51:01;2.23;;;1.10;;
76290;SDS011;65100;46.884;17.410;2023-08-06T05:53:26;3.55;;;1.10;;
76290;SDS011;65100;46.884;17.410;2023-08-06T05:55:52;2.30;;;1.10;;
76290;SDS011;65100;46.884;17.410;2023-08-06T05:58:17;3.60;;;1.10;;
76290;SDS011;65100;46.884;17.410;2023-08-06T06:00:45;3.10;;;1.23;;
76290;SDS011;65100;46.884;17.410;2023-08-06T06:03:10;2.27;;;1.10;;
76290;SDS011;65100;46.884;17.410;2023-08-06T06:05:39;2.35;;;1.10;;
76290;SDS011;65100;46.884;17.410;2023-08-06T06:08:04;3.42;;;1.10;;
76290;SDS011;65100;46.884;17.410;2023-08-06T06:10:30;3.13;;;1.20;;
76290;SDS011;65100;46.884;17.410;2023-08-06T06:12:55;2.17;;;1.00;;
76290;SDS011;65100;46.884;17.410;2023-08-06T06:15:21;3.38;;;1.23;;
76290;SDS011;65100;46.884;17.410;2023-08-06T06:17:46;3.03;;;1.20;;
76290;SDS011;65100;46.884;17.410;2023-08-06T06:20:12;3.37;;;1.30;;
76290;SDS011;65100;46.884;17.410;2023-08-06T06:22:37;3.80;;;1.20;;
76290;SDS011;65100;46.884;17.410;2023-08-06T06:25:03;3.20;;;1.10;;
76290;SDS011;65100;46.884;17.410;2023-08-06T06:27:29;2.50;;;1.10;;
76290;SDS011;65100;46.884;17.410;2023-08-06T06:29:54;2.37;;;1.10;;
76290;SDS011;65100;46.884;17.410;2023-08-06T06:32:20;3.10;;;1.07;;
76290;SDS011;65100;46.884;17.410;2023-08-06T06:34:46;2.77;;;1.17;;
76290;SDS011;65100;46.884;17.410;2023-08-06T06:37:11;3.25;;;1.20;;
76290;SDS011;65100;46.884;17.410;2023-08-06T06:39:37;4.03;;;1.10;;
76290;SDS011;65100;46.884;17.410;2023-08-06T06:42:02;3.40;;;1.20;;
76290;SDS011;65100;46.884;17.410;2023-08-06T06:44:28;3.75;;;1.20;;
76290;SDS011;65100;46.884;17.410;2023-08-06T06:46:53;2.77;;;1.20;;
76290;SDS011;65100;46.884;17.410;2023-08-06T06:49:19;2.90;;;1.20;;
76290;SDS011;65100;46.884;17.410;2023-08-06T06:51:44;2.25;;;1.05;;
76290;SDS011;65100;46.884;17.410;2023-08-06T06:54:10;2.63;;;1.20;;
76290;SDS011;65100;46.884;17.410;2023-08-06T06:56:36;3.80;;;1.23;;
76290;SDS011;65100;46.884;17.410;2023-08-06T06:59:02;2.63;;;1.10;;
76290;SDS011;65100;46.884;17.410;2023-08-06T07:01:27;3.27;;;1.20;;
76290;SDS011;65100;46.884;17.410;2023-08-06T07:03:53;3.70;;;1.30;;
76290;SDS011;65100;46.884;17.410;2023-08-06T07:06:18;3.22;;;1.10;;
76290;SDS011;65100;46.884;17.410;2023-08-06T07:08:44;3.60;;;1.20;;
76290;SDS011;65100;46.884;17.410;2023-08-06T07:11:10;4.43;;;1.40;;
76290;SDS011;65100;46.884;17.410;2023-08-06T07:13:35;2.67;;;1.20;;
76290;SDS011;65100;46.884;17.410;2023-08-06T07:16:01;3.70;;;1.27;;
76290;SDS011;65100;46.884;17.410;2023-08-06T07:18:26;3.67;;;1.07;;
76290;SDS011;65100;46.884;17.410;2023-08-06T07:20:53;2.77;;;1.23;;
76290;SDS011;65100;46.884;17.410;2023-08-06T07:23:20;2.95;;;1.20;;
76290;SDS011;65100;46.884;17.410;2023-08-06T07:25:46;3.33;;;1.20;;
76290;SDS011;65100;46.884;17.410;2023-08-06T07:28:12;3.45;;;1.20;;
76290;SDS011;65100;46.884;17.410;2023-08-06T07:30:39;2.80;;;1.20;;
76290;SDS011;65100;46.884;17.410;2023-08-06T07:33:07;3.28;;;1.20;;
76290;SDS011;65100;46.884;17.410;2023-08-06T07:35:33;4.50;;;1.50;;
76290;SDS011;65100;46.884;17.410;2023-08-06T07:38:01;2.43;;;1.10;;
76290;SDS011;65100;46.884;17.410;2023-08-06T07:40:26;2.70;;;1.20;;
76290;SDS011;65100;46.884;17.410;2023-08-06T07:42:52;5.77;;;3.60;;
76290;SDS011;65100;46.884;17.410;2023-08-06T07:45:18;3.20;;;1.30;;
76290;SDS011;65100;46.884;17.410;2023-08-06T07:47:43;2.20;;;1.10;;
76290;SDS011;65100;46.884;17.410;2023-08-06T07:50:09;2.63;;;1.30;;
76290;SDS011;65100;46.884;17.410;2023-08-06T07:52:34;2.70;;;1.20;;
76290;SDS011;65100;46.884;17.410;2023-08-06T07:55:00;3.38;;;1.20;;
76290;SDS011;65100;46.884;17.410;2023-08-06T07:57:29;3.00;;;1.17;;
76290;SDS011;65100;46.884;17.410;2023-08-06T07:59:59;3.17;;;1.33;;
76290;SDS011;65100;46.884;17.410;2023-08-06T08:02:25;3.58;;;1.30;;
76290;SDS011;65100;46.884;17.410;2023-08-06T08:04:50;4.03;;;1.40;;
76290;SDS011;65100;46.884;17.410;2023-08-06T08:07:16;3.38;;;1.40;;
76290;SDS011;65100;46.884;17.410;2023-08-06T08:09:41;3.73;;;1.23;;
76290;SDS011;65100;46.884;17.410;2023-08-06T08:12:07;2.70;;;1.20;;
76290;SDS011;65100;46.884;17.410;2023-08-06T08:14:32;4.07;;;1.40;;
76290;SDS011;65100;46.884;17.410;2023-08-06T08:17:05;3.60;;;1.50;;
76290;SDS011;65100;46.884;17.410;2023-08-06T08:19:31;4.13;;;1.40;;
76290;SDS011;65100;46.884;17.410;2023-08-06T08:21:56;2.97;;;1.30;;
76290;SDS011;65100;46.884;17.410;2023-08-06T08:24:22;3.88;;;1.30;;
76290;SDS011;65100;46.884;17.410;2023-08-06T08:26:51;3.40;;;1.40;;
76290;SDS011;65100;46.884;17.410;2023-08-06T08:29:17;3.23;;;1.20;;
76290;SDS011;65100;46.884;17.410;2023-08-06T08:31:42;3.80;;;1.52;;
76290;SDS011;65100;46.884;17.410;2023-08-06T08:34:08;3.73;;;1.40;;
76290;SDS011;65100;46.884;17.410;2023-08-06T08:36:34;3.45;;;1.30;;
76290;SDS011;65100;46.884;17.410;2023-08-06T08:38:59;2.97;;;1.30;;
76290;SDS011;65100;46.884;17.410;2023-08-06T08:41:25;2.63;;;1.33;;
76290;SDS011;65100;46.884;17.410;2023-08-06T08:43:54;3.30;;;1.50;;
76290;SDS011;65100;46.884;17.410;2023-08-06T08:46:20;3.13;;;1.30;;
76290;SDS011;65100;46.884;17.410;2023-08-06T08:48:47;3.28;;;1.33;;
76290;SDS011;65100;46.884;17.410;2023-08-06T08:51:12;3.13;;;1.30;;
76290;SDS011;65100;46.884;17.410;2023-08-06T08:53:38;2.97;;;1.30;;
76290;SDS011;65100;46.884;17.410;2023-08-06T08:56:04;3.23;;;1.20;;
76290;SDS011;65100;46.884;17.410;2023-08-06T08:58:30;4.18;;;1.33;;
76290;SDS011;65100;46.884;17.410;2023-08-06T09:00:56;3.33;;;1.40;;
76290;SDS011;65100;46.884;17.410;2023-08-06T09:03:22;4.67;;;1.40;;
76290;SDS011;65100;46.884;17.410;2023-08-06T09:05:49;3.17;;;1.20;;
76290;SDS011;65100;46.884;17.410;2023-08-06T09:08:18;3.17;;;1.27;;
76290;SDS011;65100;46.884;17.410;2023-08-06T09:10:49;4.40;;;1.40;;
76290;SDS011;65100;46.884;17.410;2023-08-06T09:13:16;2.80;;;1.23;;
76290;SDS011;65100;46.884;17.410;2023-08-06T09:15:41;3.08;;;1.35;;
76290;SDS011;65100;46.884;17.410;2023-08-06T09:18:09;2.92;;;1.20;;
76290;SDS011;65100;46.884;17.410;2023-08-06T09:20:37;2.67;;;1.20;;
76290;SDS011;65100;46.884;17.410;2023-08-06T09:23:10;3.40;;;1.30;;
76290;SDS011;65100;46.884;17.410;2023-08-06T09:25:37;2.63;;;1.20;;
76290;SDS011;65100;46.884;17.410;2023-08-06T09:28:06;2.55;;;1.10;;
76290;SDS011;65100;46.884;17.410;2023-08-06T09:30:33;3.20;;;1.20;;
76290;SDS011;65100;46.884;17.410;2023-08-06T09:33:00;3.20;;;1.30;;
76290;SDS011;65100;46.884;17.410;2023-08-06T09:35:29;2.65;;;1.05;;
76290;SDS011;65100;46.884;17.410;2023-08-06T09:37:55;3.17;;;1.20;;
76290;SDS011;65100;46.884;17.410;2023-08-06T09:40:32;3.07;;;1.20;;
76290;SDS011;65100;46.884;17.410;2023-08-06T09:42:58;2.70;;;1.10;;
76290;SDS011;65100;46.884;17.410;2023-08-06T09:45:57;3.20;;;1.20;;
76290;SDS011;65100;46.884;17.410;2023-08-06T09:48:16;2.78;;;1.38;;
76290;SDS011;65100;46.884;17.410;2023-08-06T09:50:41;3.20;;;1.30;;
76290;SDS011;65100;46.884;17.410;2023-08-06T09:53:07;3.07;;;1.23;;
76290;SDS011;65100;46.884;17.410;2023-08-06T09:55:35;3.20;;;1.30;;
76290;SDS011;65100;46.884;17.410;2023-08-06T09:58:01;3.85;;;1.15;;
76290;SDS011;65100;46.884;17.410;2023-08-06T10:00:27;3.10;;;1.20;;
76290;SDS011;65100;46.884;17.410;2023-08-06T10:02:54;3.27;;;1.30;;
76290;SDS011;65100;46.884;17.410;2023-08-06T10:05:24;2.75;;;1.30;;
76290;SDS011;65100;46.884;17.410;2023-08-06T10:07:50;2.97;;;1.20;;
76290;SDS011;65100;46.884;17.410;2023-08-06T10:10:17;3.95;;;1.30;;
76290;SDS011;65100;46.884;17.410;2023-08-06T10:12:48;3.33;;;1.30;;
76290;SDS011;65100;46.884;17.410;2023-08-06T10:15:17;3.40;;;1.20;;
76290;SDS011;65100;46.884;17.410;2023-08-06T10:17:47;3.03;;;1.20;;
76290;SDS011;65100;46.884;17.410;2023-08-06T10:20:15;3.95;;;1.20;;
76290;SDS011;65100;46.884;17.410;2023-08-06T10:22:43;3.07;;;1.13;;
76290;SDS011;65100;46.884;17.410;2023-08-06T10:25:10;4.28;;;1.20;;
76290;SDS011;65100;46.884;17.410;2023-08-06T10:30:46;3.13;;;1.10;;
76290;SDS011;65100;46.884;17.410;2023-08-06T10:33:12;3.10;;;1.30;;
76290;SDS011;65100;46.884;17.410;2023-08-06T10:40:35;2.60;;;1.15;;
76290;SDS011;65100;46.884;17.410;2023-08-06T10:43:07;2.88;;;1.20;;
76290;SDS011;65100;46.884;17.410;2023-08-06T10:45:34;3.22;;;1.30;;
76290;SDS011;65100;46.884;17.410;2023-08-06T10:48:01;2.40;;;1.10;;
76290;SDS011;65100;46.884;17.410;2023-08-06T10:50:27;4.45;;;1.30;;
76290;SDS011;65100;46.884;17.410;2023-08-06T10:52:53;2.93;;;1.20;;
76290;SDS011;65100;46.884;17.410;2023-08-06T10:55:25;3.33;;;1.30;;
76290;SDS011;65100;46.884;17.410;2023-08-06T10:57:52;2.83;;;1.30;;
76290;SDS011;65100;46.884;17.410;2023-08-06T11:00:18;2.70;;;1.10;;
76290;SDS011;65100;46.884;17.410;2023-08-06T11:02:46;4.40;;;1.40;;
76290;SDS011;65100;46.884;17.410;2023-08-06T11:05:12;2.80;;;1.20;;
76290;SDS011;65100;46.884;17.410;2023-08-06T11:07:38;3.33;;;1.40;;
76290;SDS011;65100;46.884;17.410;2023-08-06T11:10:04;2.70;;;1.30;;
76290;SDS011;65100;46.884;17.410;2023-08-06T11:12:34;3.03;;;1.10;;
76290;SDS011;65100;46.884;17.410;2023-08-06T11:15:00;2.63;;;1.20;;
76290;SDS011;65100;46.884;17.410;2023-08-06T11:17:27;3.92;;;1.30;;
76290;SDS011;65100;46.884;17.410;2023-08-06T11:19:54;3.80;;;1.15;;
76290;SDS011;65100;46.884;17.410;2023-08-06T11:22:20;3.03;;;1.20;;
76290;SDS011;65100;46.884;17.410;2023-08-06T11:24:47;3.10;;;1.40;;
76290;SDS011;65100;46.884;17.410;2023-08-06T11:27:13;4.27;;;1.30;;
76290;SDS011;65100;46.884;17.410;2023-08-06T11:29:39;2.67;;;1.20;;
76290;SDS011;65100;46.884;17.410;2023-08-06T11:32:06;3.22;;;1.48;;
76290;SDS011;65100;46.884;17.410;2023-08-06T11:34:31;3.88;;;1.40;;
76290;SDS011;65100;46.884;17.410;2023-08-06T11:36:57;3.53;;;1.30;;
76290;SDS011;65100;46.884;17.410;2023-08-06T11:39:22;3.33;;;1.60;;
76290;SDS011;65100;46.884;17.410;2023-08-06T11:41:48;3.08;;;1.30;;
76290;SDS011;65100;46.884;17.410;2023-08-06T11:44:14;3.73;;;1.50;;
76290;SDS011;65100;46.884;17.410;2023-08-06T11:49:18;3.83;;;1.50;;
76290;SDS011;65100;46.884;17.410;2023-08-06T11:51:49;4.50;;;1.50;;
76290;SDS011;65100;46.884;17.410;2023-08-06T11:54:14;4.00;;;1.50;;
76290;SDS011;65100;46.884;17.410;2023-08-06T11:56:40;3.27;;;1.40;;
76290;SDS011;65100;46.884;17.410;2023-08-06T11:59:05;3.45;;;1.30;;
76290;SDS011;65100;46.884;17.410;2023-08-06T12:01:31;3.13;;;1.30;;
76290;SDS011;65100;46.884;17.410;2023-08-06T12:03:59;3.80;;;1.30;;
76290;SDS011;65100;46.884;17.410;2023-08-06T12:06:28;3.22;;;1.27;;
76290;SDS011;65100;46.884;17.410;2023-08-06T12:08:53;3.53;;;1.30;;
76290;SDS011;65100;46.884;17.410;2023-08-06T12:11:20;5.20;;;1.50;;
76290;SDS011;65100;46.884;17.410;2023-08-06T12:13:50;5.10;;;1.63;;
76290;SDS011;65100;46.884;17.410;2023-08-06T12:16:16;4.70;;;1.75;;
76290;SDS011;65100;46.884;17.410;2023-08-06T12:18:44;4.50;;;1.60;;
76290;SDS011;65100;46.884;17.410;2023-08-06T12:21:09;4.63;;;1.60;;
76290;SDS011;65100;46.884;17.410;2023-08-06T12:26:41;4.00;;;1.60;;
76290;SDS011;65100;46.884;17.410;2023-08-06T12:29:07;4.70;;;1.70;;
76290;SDS011;65100;46.884;17.410;2023-08-06T12:31:32;3.70;;;1.60;;
76290;SDS011;65100;46.884;17.410;2023-08-06T12:33:57;5.53;;;2.00;;
76290;SDS011;65100;46.884;17.410;2023-08-06T12:36:23;5.30;;;1.80;;
76290;SDS011;65100;46.884;17.410;2023-08-06T12:38:48;5.27;;;1.80;;
76290;SDS011;65100;46.884;17.410;2023-08-06T12:41:14;4.63;;;2.00;;
76290;SDS011;65100;46.884;17.410;2023-08-06T12:43:39;6.23;;;2.00;;
76290;SDS011;65100;46.884;17.410;2023-08-06T12:46:05;4.93;;;2.00;;
76290;SDS011;65100;46.884;17.410;2023-08-06T12:48:30;5.07;;;2.10;;
76290;SDS011;65100;46.884;17.410;2023-08-06T12:50:56;4.87;;;2.00;;
76290;SDS011;65100;46.884;17.410;2023-08-06T12:53:21;5.43;;;2.17;;
76290;SDS011;65100;46.884;17.410;2023-08-06T12:55:48;7.25;;;2.10;;
76290;SDS011;65100;46.884;17.410;2023-08-06T12:58:13;5.38;;;1.90;;
76290;SDS011;65100;46.884;17.410;2023-08-06T13:00:39;4.77;;;1.90;;
76290;SDS011;65100;46.884;17.410;2023-08-06T13:03:04;5.13;;;1.90;;
76290;SDS011;65100;46.884;17.410;2023-08-06T13:05:30;5.67;;;2.20;;
76290;SDS011;65100;46.884;17.410;2023-08-06T13:07:55;4.65;;;1.92;;
76290;SDS011;65100;46.884;17.410;2023-08-06T13:10:21;5.23;;;2.00;;
76290;SDS011;65100;46.884;17.410;2023-08-06T13:12:48;4.43;;;1.90;;
76290;SDS011;65100;46.884;17.410;2023-08-06T13:15:13;4.80;;;2.08;;
76290;SDS011;65100;46.884;17.410;2023-08-06T13:17:39;4.87;;;1.80;;
76290;SDS011;65100;46.884;17.410;2023-08-06T13:20:05;4.77;;;1.73;;
76290;SDS011;65100;46.884;17.410;2023-08-06T13:22:31;5.07;;;1.90;;
76290;SDS011;65100;46.884;17.410;2023-08-06T13:24:56;5.05;;;1.90;;
76290;SDS011;65100;46.884;17.410;2023-08-06T13:27:22;4.40;;;1.77;;
76290;SDS011;65100;46.884;17.410;2023-08-06T13:29:47;5.43;;;1.93;;
76290;SDS011;65100;46.884;17.410;2023-08-06T13:32:12;5.20;;;1.90;;
76290;SDS011;65100;46.884;17.410;2023-08-06T13:34:38;5.43;;;1.80;;
76290;SDS011;65100;46.884;17.410;2023-08-06T13:37:03;5.13;;;1.80;;
76290;SDS011;65100;46.884;17.410;2023-08-06T13:39:29;6.27;;;1.90;;
76290;SDS011;65100;46.884;17.410;2023-08-06T13:41:54;5.50;;;1.70;;
76290;SDS011;65100;46.884;17.410;2023-08-06T13:44:20;4.95;;;1.80;;
76290;SDS011;65100;46.884;17.410;2023-08-06T13:46:45;4.70;;;1.70;;
76290;SDS011;65100;46.884;17.410;2023-08-06T13:49:11;4.10;;;1.70;;
76290;SDS011;65100;46.884;17.410;2023-08-06T13:51:36;5.20;;;1.80;;
76290;SDS011;65100;46.884;17.410;2023-08-06T13:54:03;4.15;;;1.70;;
76290;SDS011;65100;46.884;17.410;2023-08-06T13:56:28;3.57;;;1.60;;
76290;SDS011;65100;46.884;17.410;2023-08-06T13:58:55;4.50;;;1.80;;
76290;SDS011;65100;46.884;17.410;2023-08-06T14:01:20;4.37;;;1.80;;
76290;SDS011;65100;46.884;17.410;2023-08-06T14:03:46;4.80;;;1.90;;
76290;SDS011;65100;46.884;17.410;2023-08-06T14:06:11;5.00;;;1.77;;
76290;SDS011;65100;46.884;17.410;2023-08-06T14:08:37;4.35;;;1.70;;
76290;SDS011;65100;46.884;17.410;2023-08-06T14:11:02;4.67;;;1.60;;
76290;SDS011;65100;46.884;17.410;2023-08-06T14:13:28;4.37;;;1.70;;
76290;SDS011;65100;46.884;17.410;2023-08-06T14:15:53;5.03;;;1.60;;
76290;SDS011;65100;46.884;17.410;2023-08-06T14:18:19;4.10;;;1.70;;
76290;SDS011;65100;46.884;17.410;2023-08-06T14:20:44;4.07;;;1.73;;
76290;SDS011;65100;46.884;17.410;2023-08-06T14:23:10;5.30;;;1.70;;
76290;SDS011;65100;46.884;17.410;2023-08-06T14:25:35;4.63;;;1.80;;
76290;SDS011;65100;46.884;17.410;2023-08-06T14:28:01;5.78;;;1.70;;
76290;SDS011;65100;46.884;17.410;2023-08-06T14:30:27;5.23;;;1.77;;
76290;SDS011;65100;46.884;17.410;2023-08-06T14:32:52;4.30;;;1.70;;
76290;SDS011;65100;46.884;17.410;2023-08-06T14:35:18;4.78;;;1.90;;
76290;SDS011;65100;46.884;17.410;2023-08-06T14:37:44;4.80;;;2.00;;
76290;SDS011;65100;46.884;17.410;2023-08-06T14:40:10;4.85;;;1.90;;
76290;SDS011;65100;46.884;17.410;2023-08-06T14:42:36;4.82;;;1.95;;
76290;SDS011;65100;46.884;17.410;2023-08-06T14:45:02;4.67;;;1.97;;